Saint Anthony, Idaho
Current Conditions -  °F | °C
As of 7:22 AM on Saturday 20 Dec 2014 (Local Time) from KRXE Reporting Station
Overcast Overcast  
Wind Chill: 27°   Ceiling: 400
Heat Index: 33°   Visibility: 10mi
Dew Point: 32°   Wind: 7mph
Humidity: 96%   Direction: 230°SW
Pressure: 30.05"   Gusts: NA
Location:  43.97°N, 111.68°W
Report Text: KRXE 201422Z AUTO 23006KT 10SM OVC004 01/00 A3005 RMK AO2 T00060000
Loading
Personal Weather Stations






























Interactive Weather Map New forecast layout! Learn more

10-Day Weather Forecast

Advertisements
Track Severe Weather on mobile